Time;durP1;ratioP1;P1;durP2;ratioP2;P2;SDS_P1;SDS_P2;PMS_P1;PMS_P2;Temp;Humidity;BMP_temperature;BMP_pressure;BME280_temperature;BME280_humidity;BME280_pressure;Samples;Min_cycle;Max_cycle;Signal;HPM_P1;HPM_P2
2023/01/15 00:01:23;;;;;;;5.60;2.80;;;;;;;3.23;100.00;98459.96;109457;1253;58212;-74
2023/01/15 00:03:51;;;;;;;4.10;2.40;;;;;;;3.34;100.00;98455.79;109504;1252;58179;-74
2023/01/15 00:06:19;;;;;;;4.30;2.70;;;;;;;3.42;100.00;98450.84;109518;1254;65263;-74
2023/01/15 00:08:46;;;;;;;2.70;1.80;;;;;;;3.46;100.00;98444.70;109322;1253;61139;-74
2023/01/15 00:11:13;;;;;;;3.40;2.10;;;;;;;3.47;100.00;98436.73;109543;1254;65125;-74
2023/01/15 00:13:40;;;;;;;3.50;2.00;;;;;;;3.49;100.00;98426.79;109349;1253;58204;-74
2023/01/15 00:16:18;;;;;;;4.10;2.40;;;;;;;3.50;100.00;98420.23;109245;1253;58234;-75
2023/01/15 00:18:59;;;;;;;3.00;1.90;;;;;;;3.53;100.00;98421.51;109520;1254;66255;-74
2023/01/15 00:21:27;;;;;;;2.60;1.90;;;;;;;3.58;100.00;98419.01;109553;1254;61062;-73
2023/01/15 00:29:25;;;;;;;2.20;1.60;;;;;;;3.81;100.00;98409.99;109485;1254;58327;-74
2023/01/15 00:31:55;;;;;;;4.00;1.70;;;;;;;3.85;100.00;98405.04;109527;1252;65335;-74
2023/01/15 00:34:22;;;;;;;1.90;1.30;;;;;;;3.87;100.00;98399.69;109507;1252;61242;-73
2023/01/15 00:36:48;;;;;;;5.00;2.30;;;;;;;3.91;100.00;98388.21;109505;1253;63308;-74
2023/01/15 00:39:15;;;;;;;3.70;1.80;;;;;;;4.00;100.00;98376.67;109502;1252;58240;-73
2023/01/15 00:41:42;;;;;;;4.30;2.10;;;;;;;4.13;100.00;98370.73;109497;1253;58258;-74
2023/01/15 00:44:09;;;;;;;3.30;2.00;;;;;;;4.25;100.00;98367.00;109492;1253;65240;-74
2023/01/15 00:46:36;;;;;;;4.30;2.00;;;;;;;4.33;100.00;98359.34;109557;1252;60219;-74
2023/01/15 00:49:03;;;;;;;2.70;1.70;;;;;;;4.38;100.00;98359.96;109530;1253;65273;-73
2023/01/15 00:51:30;;;;;;;2.90;1.90;;;;;;;4.41;100.00;98361.73;109465;1253;58263;-74
2023/01/15 00:53:58;;;;;;;4.90;2.20;;;;;;;4.50;100.00;98357.98;109486;1252;58216;-74
2023/01/15 00:56:25;;;;;;;3.10;1.80;;;;;;;4.58;100.00;98357.73;109136;1252;65961;-73
2023/01/15 00:58:52;;;;;;;4.30;2.00;;;;;;;4.64;100.00;98355.98;109489;1252;61144;-73
2023/01/15 01:01:19;;;;;;;3.80;1.90;;;;;;;4.71;100.00;98357.52;109488;1252;65169;-73
2023/01/15 01:03:51;;;;;;;5.20;1.70;;;;;;;4.80;100.00;98355.98;109455;1253;58138;-73
2023/01/15 01:06:21;;;;;;;3.40;1.80;;;;;;;4.88;100.00;98347.14;109351;1252;59156;-73
2023/01/15 01:08:48;;;;;;;;;;;;;;;5.00;100.00;98347.55;109374;1251;66249;-74
2023/01/15 01:11:19;;;;;;;3.30;1.60;;;;;;;5.09;100.00;98343.56;109550;1253;61263;-74
2023/01/15 01:13:46;;;;;;;1.80;1.40;;;;;;;5.18;100.00;98338.09;109545;1253;65056;-74
2023/01/15 01:16:32;;;;;;;3.30;2.10;;;;;;;5.25;100.00;98331.20;109524;1253;58438;-73
2023/01/15 01:19:00;;;;;;;1.80;1.60;;;;;;;5.33;100.00;98329.48;109579;1252;58185;-73
2023/01/15 01:21:27;;;;;;;1.80;1.50;;;;;;;5.36;100.00;98326.50;109155;1252;66319;-73
2023/01/15 01:23:56;;;;;;;3.00;1.90;;;;;;;5.38;100.00;98321.81;109535;1252;60260;-72
2023/01/15 01:26:23;;;;;;;3.20;1.60;;;;;;;5.40;100.00;98314.86;109509;1252;74304;-74
2023/01/15 01:28:52;;;;;;;2.50;1.70;;;;;;;5.45;100.00;98314.01;109461;1251;58148;-74
2023/01/15 01:31:19;;;;;;;2.90;2.00;;;;;;;5.60;100.00;98312.44;109384;1253;58424;-73
2023/01/15 01:33:51;;;;;;;2.00;1.60;;;;;;;5.71;100.00;98312.03;109492;1252;66402;-73
2023/01/15 01:36:19;;;;;;;2.30;1.60;;;;;;;5.80;100.00;98312.02;109479;1252;61236;-73
2023/01/15 01:38:49;;;;;;;3.50;2.00;;;;;;;5.86;100.00;98312.04;109368;1252;65273;-74
2023/01/15 01:41:17;;;;;;;3.70;2.20;;;;;;;5.91;100.00;98312.77;109344;1252;58530;-73
2023/01/15 01:44:02;;;;;;;2.10;1.90;;;;;;;5.97;100.00;98306.98;109491;1253;58386;-74
2023/01/15 01:46:31;;;;;;;3.10;1.70;;;;;;;6.00;100.00;98302.58;109496;1252;66090;-74
2023/01/15 01:49:03;;;;;;;3.60;1.90;;;;;;;6.01;100.00;98298.45;109471;1252;61182;-73
2023/01/15 01:51:36;;;;;;;2.30;1.70;;;;;;;6.02;100.00;98291.73;109452;1252;63989;-74
2023/01/15 01:54:03;;;;;;;3.00;1.70;;;;;;;5.99;100.00;98284.67;109314;1253;58182;-73
2023/01/15 01:56:34;;;;;;;3.80;1.90;;;;;;;5.96;100.00;98282.54;109528;1252;58144;-75
2023/01/15 01:59:03;;;;;;;3.50;2.00;;;;;;;5.94;100.00;98280.88;109487;1253;66283;-74
2023/01/15 02:01:29;;;;;;;2.90;2.10;;;;;;;5.92;100.00;98273.59;109476;1253;60106;-74
2023/01/15 02:03:56;;;;;;;3.30;2.20;;;;;;;5.92;100.00;98276.06;109486;1253;65169;-74
2023/01/15 02:06:25;;;;;;;3.00;2.10;;;;;;;5.95;100.00;98273.46;109520;1252;58055;-73
2023/01/15 02:08:53;;;;;;;3.90;2.00;;;;;;;5.92;100.00;98270.75;109485;1252;58289;-73
2023/01/15 02:11:22;;;;;;;1.90;1.70;;;;;;;5.90;100.00;98270.50;109493;1253;66360;-74
2023/01/15 02:14:01;;;;;;;2.80;1.70;;;;;;;5.95;100.00;98275.71;109350;1252;62241;-74
2023/01/15 02:16:51;;;;;;;4.20;2.10;;;;;;;6.01;100.00;98277.16;109492;1252;65361;-74
2023/01/15 02:19:27;;;;;;;3.30;2.00;;;;;;;6.02;100.00;98264.36;109353;1253;58276;-73
2023/01/15 02:21:59;;;;;;;2.90;1.80;;;;;;;6.02;100.00;98260.88;109437;1252;58217;-74
2023/01/15 02:24:34;;;;;;;4.30;2.50;;;;;;;5.98;100.00;98266.41;109464;1253;66475;-73
2023/01/15 02:27:09;;;;;;;2.80;1.90;;;;;;;5.97;100.00;98266.48;109470;1252;58836;-73
2023/01/15 02:29:41;;;;;;;2.60;2.20;;;;;;;5.98;100.00;98261.64;109460;1251;64985;-73
2023/01/15 02:32:15;;;;;;;2.70;2.30;;;;;;;5.98;100.00;98259.33;109440;1252;58307;-74
2023/01/15 02:34:49;;;;;;;3.50;2.40;;;;;;;5.96;100.00;98253.64;109554;1252;58216;-74
2023/01/15 02:37:24;;;;;;;2.30;1.80;;;;;;;5.95;100.00;98242.95;109218;1253;66254;-73
2023/01/15 02:39:53;;;;;;;3.00;1.60;;;;;;;5.95;100.00;98237.84;109467;1253;61248;-73
2023/01/15 02:42:24;;;;;;;2.30;1.90;;;;;;;5.97;100.00;98244.56;109474;1252;65407;-74
2023/01/15 02:44:53;;;;;;;3.00;2.10;;;;;;;5.99;100.00;98240.58;109498;1252;58236;-74
2023/01/15 02:47:26;;;;;;;1.90;1.80;;;;;;;6.00;100.00;98236.86;109353;1252;58219;-73
2023/01/15 02:49:58;;;;;;;2.40;2.20;;;;;;;6.01;100.00;98236.22;109515;1253;64919;-74
2023/01/15 02:52:31;;;;;;;3.40;2.00;;;;;;;6.04;100.00;98226.36;109509;1252;61169;-73
2023/01/15 02:55:07;;;;;;;2.50;1.70;;;;;;;6.11;100.00;98218.71;109406;1252;65284;-73
2023/01/15 02:57:37;;;;;;;2.20;2.00;;;;;;;6.18;100.00;98222.88;109504;1251;58204;-74
2023/01/15 03:00:35;;;;;;;;;;;;;;;6.22;100.00;98223.65;109320;1253;58172;-74
2023/01/15 03:03:15;;;;;;;2.00;1.60;;;;;;;6.27;100.00;98228.28;109476;1252;66357;-74
2023/01/15 03:05:56;;;;;;;3.50;2.00;;;;;;;6.31;100.00;98224.01;109505;1252;61085;-74
2023/01/15 03:08:23;;;;;;;2.30;2.10;;;;;;;6.36;100.00;98210.79;109483;1252;64992;-73
2023/01/15 03:10:58;;;;;;;2.50;2.10;;;;;;;6.40;100.00;98203.86;109483;1252;58187;-74
2023/01/15 03:13:36;;;;;;;2.40;2.10;;;;;;;6.43;100.00;98209.11;109500;1252;58598;-72
2023/01/15 03:19:00;;;;;;;2.50;2.10;;;;;;;6.54;100.00;98206.11;109544;1252;61113;-74
2023/01/15 03:21:35;;;;;;;2.70;1.80;;;;;;;6.57;100.00;98203.30;109524;1252;64121;-73
2023/01/15 03:24:05;;;;;;;2.80;1.90;;;;;;;6.60;100.00;98203.98;109434;1252;58168;-73
2023/01/15 03:26:32;;;;;;;2.70;1.80;;;;;;;6.63;100.00;98202.92;109481;1252;59467;-75
2023/01/15 03:29:01;;;;;;;3.00;1.90;;;;;;;6.68;100.00;98203.34;109486;1252;66444;-73
2023/01/15 03:31:28;;;;;;;2.10;1.80;;;;;;;6.71;100.00;98202.58;109530;1251;61119;-73
2023/01/15 03:33:55;;;;;;;3.50;2.20;;;;;;;6.74;100.00;98193.41;109480;1252;64117;-72
2023/01/15 03:36:21;;;;;;;2.20;1.80;;;;;;;6.76;100.00;98190.27;109456;1251;58061;-72
2023/01/15 03:38:49;;;;;;;2.70;1.90;;;;;;;6.80;100.00;98184.55;109329;1252;58376;-72
2023/01/15 03:41:39;;;;;;;2.90;2.10;;;;;;;6.82;100.00;98183.33;109507;1252;65153;-73
2023/01/15 03:44:22;;;;;;;2.90;1.80;;;;;;;6.83;100.00;98181.50;109499;1253;61020;-74
2023/01/15 03:47:10;;;;;;;2.40;1.90;;;;;;;6.85;100.00;98178.07;109453;1252;65093;-73
2023/01/15 03:49:49;;;;;;;1.50;1.40;;;;;;;6.87;100.00;98175.98;109431;1252;58129;-74
2023/01/15 03:52:27;;;;;;;3.40;1.70;;;;;;;6.90;100.00;98175.21;109496;1252;58349;-73
2023/01/15 03:55:12;;;;;;;2.40;1.50;;;;;;;6.92;100.00;98172.83;109474;1251;66433;-74
2023/01/15 03:57:47;;;;;;;2.10;1.60;;;;;;;6.94;100.00;98159.77;109512;1252;61410;-74
2023/01/15 04:00:20;;;;;;;2.00;1.40;;;;;;;6.96;100.00;98161.61;109450;1252;64026;-73
2023/01/15 04:02:49;;;;;;;2.10;1.60;;;;;;;6.96;100.00;98161.79;109441;1252;58208;-73
2023/01/15 04:05:17;;;;;;;2.00;1.40;;;;;;;6.95;100.00;98159.36;109471;1251;58226;-73
2023/01/15 04:07:46;;;;;;;3.60;2.00;;;;;;;6.95;100.00;98157.25;109513;1251;66435;-73
2023/01/15 04:10:13;;;;;;;1.90;1.70;;;;;;;6.96;100.00;98156.13;109534;1252;60024;-73
2023/01/15 04:12:39;;;;;;;2.10;1.40;;;;;;;6.98;100.00;98154.77;109475;1252;65397;-74
2023/01/15 04:15:07;;;;;;;3.10;1.70;;;;;;;6.99;100.00;98152.23;109452;1252;58173;-74
2023/01/15 04:17:33;;;;;;;2.80;1.60;;;;;;;7.00;100.00;98147.59;109482;1252;58196;-74
2023/01/15 04:20:00;;;;;;;2.10;1.50;;;;;;;7.02;100.00;98144.07;109481;1252;74808;-73
2023/01/15 04:22:27;;;;;;;2.90;1.70;;;;;;;7.03;100.00;98142.42;109475;1252;61077;-74
2023/01/15 04:24:54;;;;;;;2.90;1.70;;;;;;;7.03;100.00;98133.73;109470;1252;64093;-74
2023/01/15 04:27:20;;;;;;;2.10;1.70;;;;;;;7.06;100.00;98129.34;109477;1252;58167;-73
2023/01/15 04:29:47;;;;;;;2.40;1.70;;;;;;;7.10;100.00;98127.13;109276;1252;58242;-74
2023/01/15 04:32:14;;;;;;;3.50;1.80;;;;;;;7.12;100.00;98125.42;109223;1251;65243;-74
2023/01/15 04:34:40;;;;;;;3.20;1.70;;;;;;;7.11;100.00;98118.21;109560;1251;60412;-74
2023/01/15 04:37:07;;;;;;;2.00;1.60;;;;;;;7.12;100.00;98113.55;109491;1251;65320;-73
2023/01/15 04:39:34;;;;;;;4.00;2.00;;;;;;;7.13;100.00;98113.31;109508;1251;58186;-74
2023/01/15 04:44:46;;;;;;;2.20;1.70;;;;;;;7.15;100.00;98102.20;109222;1252;66430;-73
2023/01/15 04:47:12;;;;;;;2.80;2.00;;;;;;;7.17;100.00;98101.56;109453;1252;60153;-73
2023/01/15 04:49:39;;;;;;;2.10;1.70;;;;;;;7.19;100.00;98093.52;109485;1252;65207;-73
2023/01/15 04:52:06;;;;;;;2.80;1.90;;;;;;;7.20;100.00;98093.58;109520;1252;58134;-73
2023/01/15 04:54:33;;;;;;;2.70;1.70;;;;;;;7.21;100.00;98090.71;109454;1252;58226;-73
2023/01/15 04:57:00;;;;;;;2.20;1.90;;;;;;;7.20;100.00;98081.74;109264;1252;65375;-73
2023/01/15 04:59:27;;;;;;;3.00;2.00;;;;;;;7.23;100.00;98079.27;109518;1251;61106;-73
2023/01/15 05:01:53;;;;;;;3.60;1.50;;;;;;;7.24;100.00;98083.41;109469;1251;64114;-73
2023/01/15 05:04:21;;;;;;;2.20;1.50;;;;;;;7.23;100.00;98083.88;109326;1253;58211;-74
2023/01/15 05:06:48;;;;;;;2.40;1.60;;;;;;;7.21;100.00;98079.94;109384;1251;58128;-75
2023/01/15 05:09:15;;;;;;;2.00;1.80;;;;;;;7.19;100.00;98079.71;109484;1252;65344;-73
2023/01/15 05:11:41;;;;;;;1.70;1.50;;;;;;;7.16;100.00;98074.79;109522;1251;60052;-75
2023/01/15 05:14:08;;;;;;;2.50;1.90;;;;;;;7.14;100.00;98075.83;109478;1252;65220;-73
2023/01/15 05:16:37;;;;;;;2.20;1.50;;;;;;;7.11;100.00;98071.58;109513;1252;58234;-74
2023/01/15 05:19:06;;;;;;;3.70;1.70;;;;;;;7.07;100.00;98066.04;109479;1252;58217;-74
2023/01/15 05:21:36;;;;;;;3.20;1.90;;;;;;;7.03;100.00;98070.52;109476;1252;65324;-74
2023/01/15 05:24:05;;;;;;;2.70;1.80;;;;;;;7.01;100.00;98068.70;109508;1252;60113;-73
2023/01/15 05:26:32;;;;;;;2.90;2.30;;;;;;;6.99;100.00;98068.88;109262;1254;65209;-74
2023/01/15 05:28:59;;;;;;;2.40;2.00;;;;;;;6.97;100.00;98065.13;109276;1254;58316;-74
2023/01/15 05:31:27;;;;;;;2.70;2.20;;;;;;;6.98;100.00;98065.76;109318;1254;58376;-73
2023/01/15 05:33:54;;;;;;;2.50;1.90;;;;;;;6.99;100.00;98060.02;109337;1254;66667;-73
2023/01/15 05:36:24;;;;;;;2.50;1.60;;;;;;;6.98;100.00;98056.38;109303;1254;61652;-73
2023/01/15 05:38:52;;;;;;;3.50;1.70;;;;;;;6.96;100.00;98057.94;109314;1254;65208;-72
2023/01/15 05:44:09;;;;;;;1.90;1.70;;;;;;;6.93;100.00;98051.61;109317;1255;58056;-73
2023/01/15 05:46:37;;;;;;;3.50;1.90;;;;;;;6.92;100.00;98047.07;109296;1254;66309;-72
2023/01/15 05:49:07;;;;;;;2.90;1.80;;;;;;;6.91;100.00;98045.23;109307;1254;59539;-73
2023/01/15 05:51:36;;;;;;;3.00;1.80;;;;;;;6.91;100.00;98039.92;109285;1256;65269;-73
2023/01/15 05:54:05;;;;;;;2.70;2.00;;;;;;;6.92;100.00;98038.98;109162;1254;58178;-73
2023/01/15 05:56:35;;;;;;;6.90;4.50;;;;;;;6.93;100.00;98036.97;109339;1254;58224;-73
2023/01/15 05:59:02;;;;;;;4.50;3.50;;;;;;;6.94;100.00;98032.86;109468;1251;66305;-74
2023/01/15 06:01:29;;;;;;;4.60;3.80;;;;;;;6.94;100.00;98032.33;109519;1252;61270;-75
2023/01/15 06:04:01;;;;;;;4.70;3.20;;;;;;;6.95;100.00;98035.92;109407;1253;65140;-73
2023/01/15 06:06:28;;;;;;;6.50;4.40;;;;;;;6.96;100.00;98035.73;109439;1252;58605;-73
2023/01/15 06:08:55;;;;;;;4.10;3.70;;;;;;;6.95;100.00;98028.69;109400;1252;58236;-73
2023/01/15 06:11:22;;;;;;;4.90;2.90;;;;;;;6.97;100.00;98032.80;109523;1252;66356;-73
2023/01/15 06:13:49;;;;;;;4.10;3.00;;;;;;;7.00;100.00;98034.69;109383;1252;58921;-74
2023/01/15 06:16:17;;;;;;;3.20;2.50;;;;;;;7.02;100.00;98026.42;109470;1252;64915;-74
2023/01/15 06:18:43;;;;;;;4.00;2.80;;;;;;;7.03;100.00;98023.73;109429;1251;58062;-73
2023/01/15 06:21:12;;;;;;;3.70;2.70;;;;;;;7.02;100.00;98030.30;109472;1252;58378;-73
2023/01/15 06:23:40;;;;;;;2.90;2.20;;;;;;;7.04;100.00;98028.25;109510;1252;65157;-74
2023/01/15 06:26:17;;;;;;;3.30;2.30;;;;;;;7.06;100.00;98023.55;109316;1252;58862;-74
2023/01/15 06:28:45;;;;;;;2.60;2.00;;;;;;;7.08;100.00;98024.14;109502;1251;65249;-74
2023/01/15 06:31:14;;;;;;;5.00;2.60;;;;;;;7.10;100.00;98023.81;109363;1253;58203;-73
2023/01/15 06:33:41;;;;;;;5.10;3.00;;;;;;;7.13;100.00;98024.83;109539;1251;58635;-73
2023/01/15 06:36:13;;;;;;;3.70;2.70;;;;;;;7.16;100.00;98027.23;109540;1251;66270;-73
2023/01/15 06:38:41;;;;;;;3.90;2.30;;;;;;;7.19;100.00;98025.15;109561;1252;61034;-74
2023/01/15 06:49:32;;;;;;;5.60;3.30;;;;;;;7.13;100.00;98024.46;109517;1251;65279;-73
2023/01/15 06:52:00;;;;;;;4.00;3.40;;;;;;;7.13;100.00;98027.88;109488;1252;61307;-74
2023/01/15 06:54:27;;;;;;;4.30;2.80;;;;;;;7.10;100.00;98021.50;109439;1252;65100;-74
2023/01/15 06:56:54;;;;;;;3.90;2.70;;;;;;;7.07;100.00;98018.57;109514;1252;58602;-74
2023/01/15 06:59:21;;;;;;;3.50;2.70;;;;;;;7.02;100.00;98014.79;109488;1251;58263;-74
2023/01/15 07:01:48;;;;;;;4.10;2.60;;;;;;;6.97;100.00;98013.90;109509;1252;66342;-74
2023/01/15 07:04:15;;;;;;;2.80;2.50;;;;;;;6.92;100.00;98022.34;109489;1251;60146;-73
2023/01/15 07:06:42;;;;;;;3.90;2.60;;;;;;;6.86;100.00;98025.59;109492;1252;64038;-74
2023/01/15 07:09:08;;;;;;;3.80;2.60;;;;;;;6.80;100.00;98024.97;109361;1252;58206;-74
2023/01/15 07:11:48;;;;;;;3.90;2.80;;;;;;;6.73;100.00;98024.36;109516;1252;58259;-74
2023/01/15 07:14:19;;;;;;;6.40;3.20;;;;;;;6.68;100.00;98021.31;109468;1252;64904;-74
2023/01/15 07:16:46;;;;;;;4.40;3.20;;;;;;;6.66;100.00;98021.84;109553;1252;60150;-74
2023/01/15 07:19:13;;;;;;;4.50;3.00;;;;;;;6.66;100.00;98026.09;109528;1252;64993;-73
2023/01/15 07:21:40;;;;;;;5.10;3.40;;;;;;;6.68;100.00;98031.55;109514;1251;58137;-74
2023/01/15 07:24:08;;;;;;;6.10;4.20;;;;;;;6.72;100.00;98032.73;109479;1251;58251;-74
2023/01/15 07:26:35;;;;;;;4.80;4.10;;;;;;;6.76;100.00;98035.60;109521;1252;65428;-74
2023/01/15 07:29:02;;;;;;;6.80;4.80;;;;;;;6.81;100.00;98038.61;109496;1251;61186;-74
2023/01/15 07:31:29;;;;;;;12.10;6.40;;;;;;;6.89;100.00;98036.33;109496;1252;65315;-74
2023/01/15 07:33:56;;;;;;;7.70;5.00;;;;;;;6.99;100.00;98034.77;109466;1251;58057;-74
2023/01/15 07:36:23;;;;;;;6.60;5.10;;;;;;;7.12;100.00;98037.05;109490;1252;58204;-72
2023/01/15 07:38:50;;;;;;;6.60;4.80;;;;;;;7.26;100.00;98037.85;109507;1251;65590;-73
2023/01/15 07:49:50;;;;;;;7.60;5.30;;;;;;;7.77;100.00;98043.34;109455;1252;58129;-74
2023/01/15 07:52:19;;;;;;;6.90;5.00;;;;;;;7.82;100.00;98048.27;109500;1252;66399;-74
2023/01/15 07:54:49;;;;;;;5.70;3.90;;;;;;;7.83;100.00;98050.69;109499;1251;60312;-74
2023/01/15 07:57:19;;;;;;;6.10;4.70;;;;;;;7.82;100.00;98042.42;109516;1252;65425;-74
2023/01/15 07:59:46;;;;;;;6.50;4.60;;;;;;;7.82;100.00;98036.64;109466;1252;58593;-74
2023/01/15 08:02:13;;;;;;;9.20;6.00;;;;;;;7.80;100.00;98036.02;108977;1251;631331;-76
2023/01/15 08:04:41;;;;;;;7.70;4.80;;;;;;;7.78;100.00;98029.80;109474;1252;66250;-74
2023/01/15 08:07:08;;;;;;;8.70;5.90;;;;;;;7.76;100.00;98030.36;109476;1252;61079;-73
2023/01/15 08:09:35;;;;;;;7.30;4.40;;;;;;;7.74;100.00;98023.27;109478;1253;65230;-73
2023/01/15 08:17:36;;;;;;;10.40;6.70;;;;;;;7.69;100.00;98016.34;109524;1251;66678;-74
2023/01/15 08:20:05;;;;;;;9.90;6.10;;;;;;;7.69;100.00;98014.70;109530;1251;61047;-74
2023/01/15 08:22:32;;;;;;;7.60;5.20;;;;;;;7.70;100.00;98009.55;109503;1252;64965;-74
2023/01/15 08:24:59;;;;;;;6.00;4.40;;;;;;;7.71;100.00;98013.71;109490;1252;58517;-74
2023/01/15 08:27:27;;;;;;;7.00;4.70;;;;;;;7.73;100.00;98011.11;109522;1251;58152;-73
2023/01/15 08:29:55;;;;;;;4.90;3.70;;;;;;;7.73;100.00;98014.97;109263;1252;66519;-72
2023/01/15 08:32:23;;;;;;;6.40;4.10;;;;;;;7.73;100.00;98010.05;109179;1252;60763;-73
2023/01/15 08:34:49;;;;;;;9.40;5.30;;;;;;;7.73;100.00;98009.52;109466;1252;65151;-74
2023/01/15 08:37:16;;;;;;;8.70;5.20;;;;;;;7.74;100.00;98011.77;109483;1251;58371;-73
2023/01/15 08:39:43;;;;;;;12.30;5.30;;;;;;;7.75;100.00;98013.08;109537;1252;59013;-73
2023/01/15 08:42:09;;;;;;;9.70;6.10;;;;;;;7.75;100.00;98012.53;109487;1252;66362;-73
2023/01/15 08:44:36;;;;;;;10.40;6.40;;;;;;;7.75;100.00;98011.85;109500;1253;60009;-75
2023/01/15 08:47:03;;;;;;;8.00;5.30;;;;;;;7.76;100.00;98005.96;109539;1251;65173;-75
2023/01/15 08:49:29;;;;;;;7.90;5.10;;;;;;;7.76;100.00;98002.92;109516;1252;58170;-74
2023/01/15 08:51:57;;;;;;;8.10;5.20;;;;;;;7.77;100.00;98001.79;109495;1252;58251;-74
2023/01/15 08:54:25;;;;;;;7.80;5.10;;;;;;;7.79;100.00;98004.49;109441;1252;66411;-75
2023/01/15 08:56:51;;;;;;;6.20;4.80;;;;;;;7.81;100.00;98006.09;109556;1253;61027;-73
2023/01/15 08:59:18;;;;;;;7.10;4.20;;;;;;;7.83;100.00;98002.95;109509;1252;65135;-74
2023/01/15 09:01:45;;;;;;;6.90;4.40;;;;;;;7.86;100.00;98007.67;109492;1252;58206;-74
2023/01/15 09:04:16;;;;;;;7.00;4.20;;;;;;;7.89;100.00;98017.23;109442;1252;58171;-74
2023/01/15 09:06:44;;;;;;;7.70;4.40;;;;;;;7.91;100.00;98015.67;109517;1252;66580;-73
2023/01/15 09:09:11;;;;;;;7.20;3.90;;;;;;;7.94;100.00;98014.42;109520;1255;61088;-73
2023/01/15 09:11:39;;;;;;;6.50;4.20;;;;;;;7.98;100.00;98010.23;109371;1252;64242;-74
2023/01/15 09:14:10;;;;;;;8.40;5.00;;;;;;;8.02;100.00;98006.36;109471;1253;58184;-73
2023/01/15 09:16:38;;;;;;;7.20;3.90;;;;;;;8.07;100.00;98007.80;109572;1252;58233;-73
2023/01/15 09:19:06;;;;;;;4.70;3.30;;;;;;;8.10;100.00;98002.04;109516;1251;66418;-72
2023/01/15 09:21:33;;;;;;;7.30;4.00;;;;;;;8.16;100.00;97996.52;109525;1253;61360;-74
2023/01/15 09:24:00;;;;;;;6.90;3.70;;;;;;;8.22;100.00;97998.16;109476;1251;65170;-74
2023/01/15 09:26:29;;;;;;;7.00;3.60;;;;;;;8.30;100.00;98000.45;109459;1251;58166;-74
2023/01/15 09:28:57;;;;;;;8.90;3.90;;;;;;;8.38;100.00;97998.98;109517;1252;58175;-74
2023/01/15 09:31:26;;;;;;;4.70;3.20;;;;;;;8.46;100.00;98000.01;109500;1252;64857;-74
2023/01/15 09:33:53;;;;;;;3.90;2.80;;;;;;;8.52;100.00;97984.45;109484;1252;61163;-74
2023/01/15 09:36:27;;;;;;;4.60;3.40;;;;;;;8.59;100.00;97979.53;109470;1253;65237;-74
2023/01/15 09:38:55;;;;;;;3.00;2.40;;;;;;;8.65;100.00;97973.27;109493;1253;58268;-73
2023/01/15 09:44:16;;;;;;;4.10;2.30;;;;;;;8.78;100.00;97963.94;109598;1251;66350;-75
2023/01/15 09:47:11;;;;;;;3.20;2.80;;;;;;;8.83;100.00;97963.55;109392;1253;61315;-74
2023/01/15 09:49:38;;;;;;;2.80;2.00;;;;;;;8.88;100.00;97965.17;109511;1253;64798;-76
2023/01/15 09:52:57;;;;;;;2.80;2.30;;;;;;;8.91;100.00;97967.55;109482;1252;59246;-74
2023/01/15 09:55:27;;;;;;;4.50;2.70;;;;;;;8.98;100.00;97969.70;108463;1267;58296;-75
2023/01/15 09:57:55;;;;;;;;;;;;;;;9.05;100.00;97969.29;108495;1267;65389;-74
2023/01/15 10:00:26;;;;;;;4.90;3.00;;;;;;;9.10;100.00;97965.20;108469;1267;61366;-73
2023/01/15 10:03:06;;;;;;;5.90;3.30;;;;;;;9.16;100.00;97967.63;108444;1267;65142;-74
2023/01/15 10:05:41;;;;;;;;;;;;;;;9.21;100.00;97959.77;108484;1267;58200;-74
2023/01/15 10:08:16;;;;;;;4.80;2.70;;;;;;;9.26;100.00;97951.25;108446;1267;58380;-75
2023/01/15 10:10:49;;;;;;;4.30;2.20;;;;;;;9.32;100.00;97944.35;108444;1267;66528;-74
2023/01/15 10:13:34;;;;;;;3.50;2.30;;;;;;;9.40;100.00;97936.30;108471;1267;60726;-74
2023/01/15 10:16:01;;;;;;;3.90;1.90;;;;;;;9.45;100.00;97929.67;108457;1267;65250;-74
2023/01/15 10:18:28;;;;;;;4.60;2.40;;;;;;;9.47;100.00;97919.40;108463;1267;58270;-72
2023/01/15 10:20:58;;;;;;;3.30;1.60;;;;;;;9.48;100.00;97911.38;108475;1267;58269;-74
2023/01/15 10:23:36;;;;;;;1.60;1.50;;;;;;;9.45;100.00;97905.91;108470;1268;66399;-73
2023/01/15 10:26:27;;;;;;;1.80;1.60;;;;;;;9.41;100.00;97912.81;108157;1267;60625;-74
2023/01/15 10:28:53;;;;;;;2.80;2.00;;;;;;;9.35;100.00;97916.46;108418;1268;64219;-73
2023/01/15 10:31:25;;;;;;;2.40;1.90;;;;;;;9.30;100.00;97911.07;108502;1260;58401;-73
2023/01/15 10:33:51;;;;;;;3.90;2.40;;;;;;;9.22;100.00;97908.83;109551;1252;58214;-73
2023/01/15 10:36:52;;;;;;;3.30;2.00;;;;;;;9.15;100.00;97906.23;109525;1251;66550;-75
2023/01/15 10:39:40;;;;;;;4.00;2.20;;;;;;;9.04;100.00;97913.77;108936;1260;61110;-75
2023/01/15 10:42:27;;;;;;;2.70;2.10;;;;;;;8.93;100.00;97908.08;108935;1259;64293;-75
2023/01/15 10:45:02;;;;;;;2.90;2.20;;;;;;;8.82;100.00;97904.14;108904;1259;58245;-74
2023/01/15 10:47:35;;;;;;;2.80;2.10;;;;;;;8.73;100.00;97894.68;108873;1259;58187;-75
2023/01/15 10:50:15;;;;;;;3.20;2.20;;;;;;;8.67;100.00;97887.92;108847;1260;66329;-76
2023/01/15 10:52:46;;;;;;;;;;;;;;;8.63;100.00;97890.73;108799;1261;61078;-73
2023/01/15 10:55:33;;;;;;;2.70;2.10;;;;;;;8.60;100.00;97886.34;108805;1262;64751;-75
2023/01/15 10:58:10;;;;;;;4.20;2.30;;;;;;;8.60;100.00;97884.92;108837;1261;58237;-74
2023/01/15 11:00:38;;;;;;;2.30;1.90;;;;;;;8.61;100.00;97882.05;108861;1262;58426;-73
2023/01/15 11:03:15;;;;;;;3.90;2.30;;;;;;;8.61;100.00;97875.83;108685;1265;65445;-74
2023/01/15 11:05:45;;;;;;;2.70;1.80;;;;;;;8.62;100.00;97876.67;108793;1262;61148;-74
2023/01/15 11:08:30;;;;;;;3.10;2.20;;;;;;;8.62;100.00;97882.88;108815;1262;64815;-74
2023/01/15 11:11:03;;;;;;;3.60;2.40;;;;;;;8.61;100.00;97879.04;108842;1262;58607;-74
2023/01/15 11:21:53;;;;;;;2.60;2.20;;;;;;;8.55;100.00;97854.46;109274;1256;65376;-73
2023/01/15 11:24:20;;;;;;;2.80;2.30;;;;;;;8.54;100.00;97848.20;109375;1254;58245;-74
2023/01/15 11:26:51;;;;;;;3.50;2.80;;;;;;;8.53;100.00;97845.80;109557;1253;58237;-75
2023/01/15 11:29:37;;;;;;;3.50;2.50;;;;;;;8.53;100.00;97843.67;109530;1253;66370;-73
2023/01/15 11:32:19;;;;;;;4.70;2.60;;;;;;;8.55;100.00;97839.30;109505;1252;61096;-73
2023/01/15 11:35:02;;;;;;;5.40;3.60;;;;;;;8.59;100.00;97831.75;109480;1254;65138;-74
2023/01/15 11:37:29;;;;;;;4.40;2.90;;;;;;;8.63;100.00;97828.56;109259;1254;58230;-73
2023/01/15 11:40:06;;;;;;;3.50;2.80;;;;;;;8.68;100.00;97826.06;109435;1254;58802;-74
2023/01/15 11:51:11;;;;;;;6.60;3.30;;;;;;;8.86;100.00;97807.50;109503;1252;58218;-74
2023/01/15 11:53:45;;;;;;;5.90;3.90;;;;;;;8.89;100.00;97800.34;109363;1253;58202;-74
2023/01/15 11:56:18;;;;;;;5.20;3.30;;;;;;;8.93;100.00;97793.86;109255;1252;66206;-75
2023/01/15 11:58:56;;;;;;;3.90;2.60;;;;;;;8.95;100.00;97794.89;109379;1252;61038;-73
2023/01/15 12:01:32;;;;;;;3.90;3.00;;;;;;;8.96;100.00;97790.52;109525;1253;65093;-73
2023/01/15 12:04:21;;;;;;;4.20;3.30;;;;;;;8.98;100.00;97788.41;109518;1253;58056;-73
2023/01/15 12:06:48;;;;;;;3.80;2.80;;;;;;;9.00;100.00;97782.06;109459;1255;58317;-74
2023/01/15 12:09:35;;;;;;;7.30;3.10;;;;;;;9.01;100.00;97784.81;109480;1251;66874;-74
2023/01/15 12:12:46;;;;;;;5.00;3.40;;;;;;;9.03;100.00;97779.24;109488;1255;60325;-73
2023/01/15 12:15:24;;;;;;;8.80;5.50;;;;;;;9.03;100.00;97775.49;108776;1262;64062;-74
2023/01/15 12:18:03;;;;;;;8.30;6.70;;;;;;;9.07;100.00;97774.32;108925;1259;58239;-74
2023/01/15 12:20:47;;;;;;;8.30;6.10;;;;;;;9.10;100.00;97770.28;108930;1259;58449;-74
2023/01/15 12:23:33;;;;;;;8.10;5.30;;;;;;;9.14;100.00;97765.23;108916;1259;66257;-73
2023/01/15 12:26:18;;;;;;;9.10;5.70;;;;;;;9.16;100.00;97762.23;108944;1259;61281;-74
2023/01/15 12:28:58;;;;;;;8.90;5.10;;;;;;;9.17;100.00;97755.25;108942;1259;64286;-74
2023/01/15 12:31:34;;;;;;;9.90;6.00;;;;;;;9.16;100.00;97754.22;108848;1259;58310;-75
2023/01/15 12:34:16;;;;;;;9.60;5.20;;;;;;;9.18;100.00;97750.84;108880;1259;58388;-74
2023/01/15 12:36:54;;;;;;;7.80;5.30;;;;;;;9.23;100.00;97748.67;108889;1259;66331;-75
2023/01/15 12:39:33;;;;;;;7.30;4.10;;;;;;;9.27;100.00;97741.67;108925;1259;61152;-73
2023/01/15 12:44:59;;;;;;;6.10;4.00;;;;;;;9.29;100.00;97739.74;108920;1259;58254;-74